Time;durP1;ratioP1;P1;durP2;ratioP2;P2;SDS_P1;SDS_P2;PMS_P1;PMS_P2;Temp;Humidity;BMP_temperature;BMP_pressure;BME280_temperature;BME280_humidity;BME280_pressure;Samples;Min_cycle;Max_cycle;Signal;HPM_P1;HPM_P2
2023/07/13 00:01:53;;;;;;;;;4.40;3.60;;;;;18.15;53.03;99742.34;5034284;28;8835;-61
2023/07/13 00:04:22;;;;;;;;;3.00;3.00;;;;;18.12;53.20;99740.84;5017544;28;8838;-60
2023/07/13 00:06:50;;;;;;;;;1.80;1.80;;;;;18.08;52.81;99742.19;5015377;28;8964;-58
2023/07/13 00:09:18;;;;;;;;;3.40;3.40;;;;;18.05;53.05;99742.53;5015363;28;8906;-60
2023/07/13 00:11:47;;;;;;;;;1.40;1.40;;;;;18.02;53.06;99748.28;5013718;28;8822;-60
2023/07/13 00:14:17;;;;;;;;;3.00;3.00;;;;;17.97;53.55;99750.66;5013992;28;8926;-60
2023/07/13 00:16:45;;;;;;;;;3.20;3.20;;;;;17.91;53.07;99743.25;5014221;28;8854;-61
2023/07/13 00:19:13;;;;;;;;;3.00;3.00;;;;;17.85;53.73;99749.34;5014476;28;8914;-60
2023/07/13 00:21:41;;;;;;;;;3.00;3.00;;;;;17.81;53.76;99757.94;5016789;28;8850;-60
2023/07/13 00:24:08;;;;;;;;;3.00;3.00;;;;;17.74;54.21;99757.78;5013623;28;8849;-60
2023/07/13 00:26:36;;;;;;;;;1.80;1.80;;;;;17.68;54.21;99755.78;5013403;28;8834;-59
2023/07/13 00:29:05;;;;;;;;;4.00;4.00;;;;;17.62;54.33;99761.03;5024497;28;8816;-60
2023/07/13 00:31:32;;;;;;;;;3.20;3.20;;;;;17.56;53.88;99762.56;5031582;28;8813;-61
2023/07/13 00:34:01;;;;;;;;;1.00;1.00;;;;;17.52;54.04;99763.03;5019744;28;8826;-59
2023/07/13 00:36:28;;;;;;;;;1.40;1.00;;;;;17.48;54.05;99757.16;5013255;28;8846;-60
2023/07/13 00:38:56;;;;;;;;;3.40;3.40;;;;;17.46;54.96;99756.50;5013833;28;9570;-60
2023/07/13 00:41:24;;;;;;;;;1.00;1.00;;;;;17.42;54.60;99757.84;5014934;28;8822;-60
2023/07/13 00:43:52;;;;;;;;;3.00;3.00;;;;;17.39;54.54;99754.66;5014029;28;8814;-60
2023/07/13 00:46:20;;;;;;;;;3.00;3.00;;;;;17.35;54.94;99762.19;5013879;28;8864;-58
2023/07/13 00:48:47;;;;;;;;;2.20;1.80;;;;;17.30;54.93;99756.47;5012449;28;9475;-58
2023/07/13 00:51:16;;;;;;;;;3.40;3.40;;;;;17.26;54.79;99760.53;5011559;28;8871;-60
2023/07/13 00:53:44;;;;;;;;;1.00;1.00;;;;;17.20;54.45;99752.25;5011862;28;8818;-58
2023/07/13 00:56:11;;;;;;;;;1.00;1.00;;;;;17.15;54.62;99758.16;5011713;28;8850;-60
2023/07/13 00:58:40;;;;;;;;;0.80;0.80;;;;;17.11;55.34;99753.28;5022320;28;8844;-58
2023/07/13 01:01:07;;;;;;;;;3.00;3.00;;;;;17.07;54.52;99750.09;5031458;28;8866;-61
2023/07/13 01:03:37;;;;;;;;;1.40;1.40;;;;;17.01;54.85;99739.97;5029182;28;8828;-60
2023/07/13 01:06:05;;;;;;;;;0.60;0.60;;;;;16.97;54.62;99744.03;5017016;28;8851;-61
2023/07/13 01:08:33;;;;;;;;;1.00;1.00;;;;;16.95;55.06;99735.25;5021183;28;8845;-61
2023/07/13 01:11:01;;;;;;;;;1.00;1.00;;;;;16.92;55.16;99738.31;5013639;28;8834;-59
2023/07/13 01:13:28;;;;;;;;;1.00;1.00;;;;;16.89;54.96;99738.66;5013214;28;8862;-60
2023/07/13 01:15:56;;;;;;;;;2.60;2.60;;;;;16.84;54.88;99738.31;5022181;28;9478;-61
2023/07/13 01:18:24;;;;;;;;;0.00;0.00;;;;;16.81;55.26;99752.09;5033331;28;8839;-60
2023/07/13 01:20:50;;;;;;;;;1.50;1.50;;;;;16.77;55.46;99741.81;5032064;28;8966;-60
2023/07/13 01:23:18;;;;;;;;;1.00;1.00;;;;;16.73;55.12;99741.31;5032449;28;8863;-59
2023/07/13 01:25:46;;;;;;;;;1.00;1.00;;;;;16.69;55.50;99745.34;5032095;28;8848;-61
2023/07/13 01:28:16;;;;;;;;;1.40;1.00;;;;;16.68;55.42;99750.88;5031904;28;8828;-58
2023/07/13 01:30:45;;;;;;;;;1.00;1.00;;;;;16.63;55.55;99755.94;5032553;28;8828;-59
2023/07/13 01:33:13;;;;;;;;;3.00;3.00;;;;;16.57;55.62;99745.81;5031954;28;8840;-58
2023/07/13 01:35:40;;;;;;;;;0.80;0.40;;;;;16.50;55.30;99748.31;5032410;28;8829;-58
2023/07/13 01:38:08;;;;;;;;;0.80;0.80;;;;;16.47;55.76;99745.13;5031981;28;8986;-61
2023/07/13 01:40:36;;;;;;;;;1.00;1.00;;;;;16.44;55.33;99751.69;5032511;28;8828;-61
2023/07/13 01:43:03;;;;;;;;;1.00;1.00;;;;;16.42;55.76;99750.16;5035115;28;8828;-60
2023/07/13 01:45:31;;;;;;;;;3.60;1.40;;;;;16.39;55.62;99751.31;5036235;28;8827;-59
2023/07/13 01:47:59;;;;;;;;;2.50;2.50;;;;;16.36;55.79;99740.00;5036678;28;8812;-60
2023/07/13 01:50:27;;;;;;;;;1.00;1.00;;;;;16.34;55.73;99740.16;5036167;28;8820;-59
2023/07/13 01:52:55;;;;;;;;;1.00;1.00;;;;;16.32;55.67;99742.19;5034886;28;8846;-61
2023/07/13 01:55:24;;;;;;;;;0.25;0.25;;;;;16.31;55.77;99761.16;5035714;28;8854;-59
2023/07/13 01:57:51;;;;;;;;;0.25;0.25;;;;;16.29;55.43;99763.16;5035380;28;8904;-61
2023/07/13 02:00:19;;;;;;;;;0.40;0.00;;;;;16.27;55.16;99755.25;5035534;28;8832;-60
2023/07/13 02:02:47;;;;;;;;;2.50;2.50;;;;;16.28;55.38;99759.66;5035310;28;8842;-60
2023/07/13 02:05:15;;;;;;;;;1.00;1.00;;;;;16.25;55.45;99749.22;5036221;28;8820;-60
2023/07/13 02:07:42;;;;;;;;;2.50;2.50;;;;;16.24;55.77;99754.75;5035120;28;8946;-61
2023/07/13 02:10:10;;;;;;;;;1.00;1.00;;;;;16.23;55.39;99754.94;5015301;28;8860;-61
2023/07/13 02:12:38;;;;;;;;;1.00;1.00;;;;;16.19;55.22;99755.22;5015602;28;8838;-61
2023/07/13 02:15:05;;;;;;;;;1.00;1.00;;;;;16.15;56.10;99754.91;5016204;28;8826;-61
2023/07/13 02:17:33;;;;;;;;;3.00;2.00;;;;;16.10;55.47;99759.91;5016003;28;8830;-60
2023/07/13 02:20:01;;;;;;;;;1.00;1.00;;;;;16.06;55.56;99756.69;5026129;28;8812;-61
2023/07/13 02:22:28;;;;;;;;;0.00;0.00;;;;;16.01;55.82;99764.38;5035698;28;8824;-61
2023/07/13 02:24:56;;;;;;;;;0.50;0.50;;;;;15.98;55.80;99763.84;5034684;28;8975;-61
2023/07/13 02:27:24;;;;;;;;;0.00;0.00;;;;;15.92;56.11;99759.97;5035596;28;8824;-60
2023/07/13 02:29:52;;;;;;;;;0.00;0.00;;;;;15.90;55.96;99761.13;5035209;28;8832;-61
2023/07/13 02:32:20;;;;;;;;;1.00;1.00;;;;;15.87;55.72;99762.31;5036037;28;8828;-61
2023/07/13 02:34:48;;;;;;;;;0.00;0.00;;;;;15.85;55.94;99755.41;5035364;28;8828;-60
2023/07/13 02:37:16;;;;;;;;;0.00;0.00;;;;;15.81;56.13;99746.84;5035583;28;8819;-60
2023/07/13 02:39:43;;;;;;;;;1.50;1.00;;;;;15.79;56.23;99759.56;5035403;28;8824;-60
2023/07/13 02:42:12;;;;;;;;;3.00;1.00;;;;;15.78;56.85;99762.44;5033458;28;8824;-61
2023/07/13 02:44:44;;;;;;;;;1.00;1.00;;;;;15.76;56.95;99754.53;5034778;28;8839;-61
2023/07/13 02:47:12;;;;;;;;;1.00;0.50;;;;;15.75;56.77;99749.31;5023220;28;8826;-60
2023/07/13 02:49:40;;;;;;;;;0.25;0.25;;;;;15.73;56.70;99754.84;5015572;28;8949;-60
2023/07/13 02:52:08;;;;;;;;;0.75;0.00;;;;;15.72;57.24;99752.31;5015902;28;8830;-60
2023/07/13 02:54:36;;;;;;;;;0.25;0.25;;;;;15.71;56.91;99748.78;5016273;28;8837;-60
2023/07/13 02:57:03;;;;;;;;;0.00;0.00;;;;;15.68;57.28;99750.94;5035388;28;9514;-60
2023/07/13 02:59:31;;;;;;;;;0.00;0.00;;;;;15.69;57.14;99758.03;5034871;28;8812;-61
2023/07/13 03:01:59;;;;;;;;;0.25;0.00;;;;;15.68;56.68;99753.63;5035079;28;8867;-61
2023/07/13 03:04:26;;;;;;;;;1.00;1.00;;;;;15.68;57.03;99750.94;5033305;28;8872;-61
2023/07/13 03:06:57;;;;;;;;;2.00;2.00;;;;;15.66;56.79;99752.94;5035277;28;8820;-61
2023/07/13 03:09:25;;;;;;;;;1.00;1.00;;;;;15.65;57.23;99756.63;5035307;28;8843;-60
2023/07/13 03:11:52;;;;;;;;;0.00;0.00;;;;;15.62;56.91;99760.47;5026134;28;8822;-60
2023/07/13 03:14:21;;;;;;;;;1.00;1.00;;;;;15.62;57.14;99759.66;5015596;28;8964;-61
2023/07/13 03:16:48;;;;;;;;;1.00;1.00;;;;;15.59;57.52;99757.25;5034451;28;8831;-60
2023/07/13 03:19:16;;;;;;;;;0.00;0.00;;;;;15.58;57.73;99755.59;5034547;28;8828;-61
2023/07/13 03:21:44;;;;;;;;;0.50;0.50;;;;;15.56;58.05;99761.09;5022507;28;8927;-59
2023/07/13 03:24:12;;;;;;;;;3.25;1.50;;;;;15.54;57.38;99773.03;5034239;28;8846;-61
2023/07/13 03:26:40;;;;;;;;;1.00;1.00;;;;;15.53;57.48;99768.63;5034496;28;8816;-60
2023/07/13 03:29:07;;;;;;;;;0.00;0.00;;;;;15.53;57.60;99774.00;5034330;28;8828;-61
2023/07/13 03:31:35;;;;;;;;;0.50;0.50;;;;;15.52;57.93;99773.16;5034330;28;8840;-60
2023/07/13 03:34:03;;;;;;;;;1.00;1.00;;;;;15.51;58.14;99774.16;5034466;28;8858;-60
2023/07/13 03:36:31;;;;;;;;;0.25;0.25;;;;;15.50;57.42;99768.94;5034616;28;8836;-61
2023/07/13 03:38:59;;;;;;;;;1.00;1.00;;;;;15.50;57.83;99771.63;5034240;28;8824;-60
2023/07/13 03:41:27;;;;;;;;;0.50;0.50;;;;;15.48;57.77;99766.41;5034713;28;8846;-63
2023/07/13 03:43:54;;;;;;;;;2.50;2.50;;;;;15.48;58.21;99779.00;5034820;28;8862;-61
2023/07/13 03:46:22;;;;;;;;;1.00;1.00;;;;;15.49;58.45;99786.06;5034443;28;8844;-59
2023/07/13 03:48:50;;;;;;;;;1.00;1.00;;;;;15.49;58.47;99788.75;5032952;28;8836;-59
2023/07/13 03:51:18;;;;;;;;;2.00;1.00;;;;;15.47;58.02;99780.84;5032948;28;8862;-61
2023/07/13 03:53:45;;;;;;;;;1.00;1.00;;;;;15.48;58.17;99781.69;5033126;28;8846;-60
2023/07/13 03:56:15;;;;;;;;;1.00;0.50;;;;;15.48;58.62;99782.53;5032791;28;8848;-61
2023/07/13 03:58:43;;;;;;;;;1.00;1.00;;;;;15.47;58.27;99783.53;5032721;28;8854;-61
2023/07/13 04:01:11;;;;;;;;;1.00;1.00;;;;;15.48;58.04;99781.69;5033176;28;8974;-61
2023/07/13 04:03:39;;;;;;;;;1.00;1.00;;;;;15.49;58.12;99784.19;5033466;28;8933;-58
2023/07/13 04:06:06;;;;;;;;;1.00;1.00;;;;;15.52;58.71;99788.41;5017919;28;8907;-58
2023/07/13 04:08:34;;;;;;;;;1.50;1.00;;;;;15.54;58.21;99781.06;5013369;28;8948;-60
2023/07/13 04:11:02;;;;;;;;;0.25;0.25;;;;;15.58;57.91;99790.47;5018981;28;8955;-61
2023/07/13 04:13:29;;;;;;;;;0.00;0.00;;;;;15.60;57.98;99796.53;5033853;28;8824;-61
2023/07/13 04:15:57;;;;;;;;;1.50;1.50;;;;;15.67;58.22;99802.94;5033810;28;8839;-61
2023/07/13 04:18:25;;;;;;;;;1.33;1.33;;;;;15.72;58.43;99806.88;5032864;28;8835;-60
2023/07/13 04:20:54;;;;;;;;;0.25;0.25;;;;;15.80;57.31;99806.06;5013898;28;8818;-61
2023/07/13 04:23:22;;;;;;;;;1.00;1.00;;;;;15.87;57.64;99804.44;5029130;28;8946;-60
2023/07/13 04:25:52;;;;;;;;;2.00;2.00;;;;;15.94;57.85;99802.81;5033199;28;8840;-60
2023/07/13 04:28:20;;;;;;;;;0.00;0.00;;;;;16.02;57.74;99801.00;5033574;28;8812;-61
2023/07/13 04:30:48;;;;;;;;;0.75;0.75;;;;;16.09;57.11;99803.88;5033814;28;9594;-60
2023/07/13 04:33:17;;;;;;;;;0.50;0.50;;;;;16.13;57.31;99794.50;5033110;28;8831;-61
2023/07/13 04:35:46;;;;;;;;;1.00;1.00;;;;;16.19;57.42;99798.22;5033159;28;8858;-59
2023/07/13 04:38:15;;;;;;;;;0.50;0.50;;;;;16.25;56.88;99808.34;5033215;28;8862;-61
2023/07/13 04:40:43;;;;;;;;;0.25;0.25;;;;;16.31;57.20;99806.84;5031795;28;8853;-61
2023/07/13 04:43:11;;;;;;;;;1.00;1.00;;;;;16.36;57.25;99808.06;5028393;28;8838;-63
2023/07/13 04:45:39;;;;;;;;;1.00;1.00;;;;;16.42;56.82;99803.91;5013512;28;8830;-60
2023/07/13 04:48:06;;;;;;;;;0.50;0.50;;;;;16.46;57.23;99800.72;5013265;28;8829;-58
2023/07/13 04:50:34;;;;;;;;;1.00;1.00;;;;;16.52;56.96;99796.53;5020079;28;8820;-59
2023/07/13 04:53:03;;;;;;;;;2.25;1.50;;;;;16.57;56.70;99800.41;5030585;28;8831;-60
2023/07/13 04:55:31;;;;;;;;;1.00;1.00;;;;;16.63;57.07;99799.78;5015071;28;8856;-61
2023/07/13 04:57:59;;;;;;;;;1.50;1.00;;;;;16.73;56.82;99810.41;5012697;28;8895;-61
2023/07/13 05:00:27;;;;;;;;;0.75;0.75;;;;;16.80;56.67;99811.41;5013259;28;8845;-60
2023/07/13 05:02:54;;;;;;;;;1.00;1.00;;;;;16.85;56.39;99804.53;5013831;28;8891;-60
2023/07/13 05:05:23;;;;;;;;;1.50;1.50;;;;;16.90;56.56;99807.59;5013597;28;8825;-60
2023/07/13 05:07:51;;;;;;;;;1.00;1.00;;;;;16.96;56.17;99806.94;5013463;28;8992;-60
2023/07/13 05:10:18;;;;;;;;;2.50;1.00;;;;;17.01;56.19;99809.13;5024608;28;8828;-60
2023/07/13 05:12:46;;;;;;;;;0.60;0.20;;;;;17.06;56.05;99806.75;5014305;28;8818;-61
2023/07/13 05:15:14;;;;;;;;;1.50;1.00;;;;;17.11;56.08;99801.72;5013416;28;8956;-60
2023/07/13 05:17:42;;;;;;;;;1.00;1.00;;;;;17.16;56.54;99808.28;5013124;28;8840;-59
2023/07/13 05:20:09;;;;;;;;;3.00;3.00;;;;;17.21;56.07;99808.63;5030990;28;9582;-61
2023/07/13 05:22:37;;;;;;;;;1.00;1.00;;;;;17.28;55.76;99811.47;5032542;28;8982;-59
2023/07/13 05:25:05;;;;;;;;;0.00;0.00;;;;;17.35;55.92;99816.03;5032567;28;8833;-61
2023/07/13 05:27:32;;;;;;;;;1.00;1.00;;;;;17.40;55.99;99827.16;5033182;28;8828;-60
2023/07/13 05:30:00;;;;;;;;;0.60;0.60;;;;;17.44;55.59;99822.28;5032387;28;9816;-59
2023/07/13 05:32:28;;;;;;;;;3.40;3.00;;;;;17.51;55.76;99826.84;5032569;28;8828;-61
2023/07/13 05:34:56;;;;;;;;;1.00;1.00;;;;;17.57;56.00;99822.63;5032415;28;8828;-61
2023/07/13 05:37:24;;;;;;;;;1.40;1.00;;;;;17.61;55.29;99822.13;5032072;28;8824;-61
2023/07/13 05:39:51;;;;;;;;;3.00;3.00;;;;;17.67;55.61;99826.81;5032000;28;8854;-59
2023/07/13 05:42:19;;;;;;;;;1.00;1.00;;;;;17.72;55.66;99837.94;5032141;28;8839;-59
2023/07/13 05:44:47;;;;;;;;;3.40;0.60;;;;;17.79;55.71;99840.78;5030961;28;8832;-60
2023/07/13 05:47:15;;;;;;;;;3.00;3.00;;;;;17.84;55.33;99835.75;5030407;28;8836;-61
2023/07/13 05:49:42;;;;;;;;;0.60;0.40;;;;;17.93;55.44;99837.41;5030268;28;8832;-60
2023/07/13 05:52:10;;;;;;;;;1.00;1.00;;;;;18.02;55.11;99837.22;5030620;28;8832;-58
2023/07/13 05:54:38;;;;;;;;;1.00;1.00;;;;;18.08;54.82;99841.91;5026320;28;8848;-59
2023/07/13 05:57:06;;;;;;;;;1.00;1.00;;;;;18.15;55.11;99842.06;5030878;28;8866;-60
2023/07/13 05:59:33;;;;;;;;;2.20;1.40;;;;;18.24;54.72;99833.81;5017260;28;8818;-60
2023/07/13 06:02:01;;;;;;;;;1.00;1.00;;;;;18.37;54.75;99847.59;5029396;28;8830;-61
2023/07/13 06:04:29;;;;;;;;;0.80;0.80;;;;;18.44;54.55;99839.66;5029939;28;8847;-61
2023/07/13 06:06:57;;;;;;;;;1.00;1.00;;;;;18.44;55.26;99850.44;5032292;28;8862;-59
2023/07/13 06:09:25;;;;;;;;;0.40;0.40;;;;;18.48;54.96;99852.63;5030796;28;8863;-59
2023/07/13 06:11:52;;;;;;;;;3.80;3.00;;;;;18.52;55.26;99863.91;5020566;28;8822;-58
2023/07/13 06:14:20;;;;;;;;;2.60;1.00;;;;;18.48;55.34;99858.03;5011672;28;9504;-60
2023/07/13 06:16:48;;;;;;;;;3.60;3.00;;;;;18.47;54.91;99856.34;5011608;28;8819;-59
2023/07/13 06:19:16;;;;;;;;;2.60;2.60;;;;;18.46;55.05;99849.28;5011586;28;8911;-60
2023/07/13 06:21:44;;;;;;;;;0.80;0.80;;;;;18.47;55.21;99850.94;5021621;28;8858;-60
2023/07/13 06:24:12;;;;;;;;;1.40;1.00;;;;;18.56;54.86;99860.69;5015343;28;8854;-58
2023/07/13 06:26:39;;;;;;;;;1.00;1.00;;;;;18.69;54.63;99852.03;5010943;28;8861;-58
2023/07/13 06:29:07;;;;;;;;;1.00;1.00;;;;;18.80;54.80;99848.91;5011436;28;8845;-60
2023/07/13 06:31:35;;;;;;;;;1.40;1.40;;;;;18.91;54.52;99860.16;5014407;28;9008;-58
2023/07/13 06:34:03;;;;;;;;;3.00;3.00;;;;;18.98;54.21;99861.13;5014401;28;8876;-60
2023/07/13 06:36:31;;;;;;;;;3.00;1.00;;;;;19.01;53.84;99863.50;5014182;28;8889;-60
2023/07/13 06:38:59;;;;;;;;;1.00;1.00;;;;;19.04;54.23;99868.53;5015629;28;8863;-61
2023/07/13 06:41:27;;;;;;;;;3.00;3.00;;;;;19.11;53.67;99877.59;5014490;28;8818;-61
2023/07/13 06:43:55;;;;;;;;;1.40;1.00;;;;;19.18;54.07;99878.56;5015377;28;8826;-61
2023/07/13 06:46:22;;;;;;;;;2.20;2.20;;;;;19.18;54.51;99875.06;5014507;28;8822;-61
2023/07/13 06:48:50;;;;;;;;;2.20;2.20;;;;;19.13;54.51;99872.84;5014446;28;8823;-59
2023/07/13 06:51:18;;;;;;;;;0.80;0.00;;;;;19.11;54.30;99872.22;5014362;28;8818;-60
2023/07/13 06:53:45;;;;;;;;;2.40;2.20;;;;;19.12;54.77;99879.28;5015192;28;8822;-60
2023/07/13 06:56:14;;;;;;;;;1.00;1.00;;;;;19.16;54.84;99879.78;5028342;28;8837;-60
2023/07/13 06:58:41;;;;;;;;;1.40;1.00;;;;;19.18;54.40;99877.75;5013165;28;8841;-61
2023/07/13 07:01:09;;;;;;;;;3.60;3.60;;;;;19.24;54.76;99887.84;5013271;28;8842;-60
2023/07/13 07:03:37;;;;;;;;;2.60;1.00;;;;;19.29;54.82;99880.91;5013303;28;9595;-60
2023/07/13 07:06:05;;;;;;;;;5.00;4.00;;;;;19.40;54.22;99882.34;5014686;28;8834;-61
2023/07/13 07:08:33;;;;;;;;;4.60;4.20;;;;;19.51;53.92;99874.66;5033361;28;8911;-58
2023/07/13 07:11:01;;;;;;;;;4.60;4.00;;;;;19.59;54.20;99871.06;5027778;28;8803;-61
2023/07/13 07:13:30;;;;;;;;;4.00;3.20;;;;;19.64;53.71;99879.47;5033401;28;8850;-60
2023/07/13 07:15:59;;;;;;;;;5.20;5.20;;;;;19.65;54.15;99879.28;5019853;28;8892;-60
2023/07/13 07:18:27;;;;;;;;;3.40;3.40;;;;;19.68;53.82;99884.34;5033521;28;9677;-59
2023/07/13 07:20:55;;;;;;;;;3.00;3.00;;;;;19.72;54.24;99885.66;5033461;28;8850;-60
2023/07/13 07:23:22;;;;;;;;;4.60;4.00;;;;;19.74;54.13;99885.47;5033243;28;8941;-59
2023/07/13 07:25:51;;;;;;;;;4.00;4.00;;;;;19.72;54.19;99891.03;5033728;28;8867;-58
2023/07/13 07:28:19;;;;;;;;;3.80;3.80;;;;;19.77;53.98;99879.69;5033663;28;8854;-59
2023/07/13 07:30:49;;;;;;;;;5.40;3.80;;;;;19.88;53.66;99885.50;5033262;28;8788;-60
2023/07/13 07:33:20;;;;;;;;;4.80;3.40;;;;;19.99;53.62;99890.50;5033462;28;8832;-58
2023/07/13 07:35:48;;;;;;;;;1.80;1.40;;;;;20.10;53.74;99887.34;5033741;28;8844;-60
2023/07/13 07:38:19;;;;;;;;;2.60;2.60;;;;;20.18;53.42;99892.69;5033301;28;8791;-59
2023/07/13 07:40:51;;;;;;;;;2.80;2.80;;;;;20.25;53.45;99885.50;5033859;28;8868;-60
2023/07/13 07:43:21;;;;;;;;;2.20;2.20;;;;;20.31;53.36;99890.19;5033371;28;8784;-60
2023/07/13 07:45:49;;;;;;;;;4.00;4.00;;;;;20.36;53.28;99890.50;5032146;28;8836;-60
2023/07/13 07:48:17;;;;;;;;;4.80;3.40;;;;;20.45;53.45;99886.66;5031517;28;8862;-61
2023/07/13 07:50:45;;;;;;;;;2.00;2.00;;;;;20.53;53.40;99888.41;5030799;28;8844;-59
2023/07/13 07:53:13;;;;;;;;;5.00;4.60;;;;;20.69;52.82;99893.66;5032318;28;8828;-60
2023/07/13 07:55:41;;;;;;;;;4.00;4.00;;;;;20.79;53.05;99890.47;5032789;28;8867;-60
2023/07/13 07:58:28;;;;;;;;;2.00;2.00;;;;;20.76;52.72;99895.44;5013831;28;8846;-61
2023/07/13 08:00:59;;;;;;;;;4.00;4.00;;;;;20.71;53.26;99897.03;5012203;28;8798;-59
2023/07/13 08:03:30;;;;;;;;;4.00;4.00;;;;;20.73;53.20;99896.63;5012346;28;8786;-59
2023/07/13 08:06:19;;;;;;;;;5.00;4.60;;;;;20.84;52.52;99881.78;5013775;28;8866;-59
2023/07/13 08:08:50;;;;;;;;;3.20;2.00;;;;;21.01;52.88;99894.09;5011799;28;8824;-60
2023/07/13 08:11:18;;;;;;;;;4.40;4.40;;;;;21.10;52.82;99890.28;5013440;28;8826;-61
2023/07/13 08:13:48;;;;;;;;;7.00;5.00;;;;;21.10;52.36;99895.69;5012810;28;8809;-59
2023/07/13 08:16:20;;;;;;;;;2.00;2.00;;;;;21.10;52.77;99887.56;5013059;28;8846;-58
2023/07/13 08:18:48;;;;;;;;;4.00;3.20;;;;;21.16;52.51;99890.34;5026234;28;8831;-60
2023/07/13 08:21:15;;;;;;;;;2.40;2.40;;;;;21.19;52.80;99891.84;5012471;28;9550;-58
2023/07/13 08:23:43;;;;;;;;;4.80;4.80;;;;;21.26;52.36;99884.63;5012251;28;8833;-59
2023/07/13 08:26:11;;;;;;;;;4.00;4.00;;;;;21.33;52.30;99882.84;5012627;28;8957;-61
2023/07/13 08:28:39;;;;;;;;;3.60;3.60;;;;;21.48;51.98;99889.88;5026581;28;8819;-61
2023/07/13 08:31:07;;;;;;;;;4.20;4.20;;;;;21.55;52.08;99898.91;5030833;28;8830;-58
2023/07/13 08:33:35;;;;;;;;;4.60;4.00;;;;;21.57;52.33;99899.56;5011952;28;8842;-61
2023/07/13 08:36:02;;;;;;;;;5.00;4.80;;;;;21.69;52.11;99886.34;5012301;28;9534;-60
2023/07/13 08:38:31;;;;;;;;;4.00;4.00;;;;;21.78;51.51;99888.75;5010882;28;8849;-59
2023/07/13 08:40:59;;;;;;;;;1.80;1.80;;;;;21.85;51.78;99878.78;5012105;28;8856;-59
2023/07/13 08:43:26;;;;;;;;;5.00;4.80;;;;;21.92;51.55;99878.84;5012451;28;8826;-59
2023/07/13 08:45:54;;;;;;;;;4.00;4.00;;;;;21.97;51.28;99879.97;5011895;28;8830;-60
2023/07/13 08:48:22;;;;;;;;;5.00;5.00;;;;;21.93;51.36;99870.53;5011897;28;8862;-60
2023/07/13 08:50:49;;;;;;;;;7.00;4.80;;;;;21.98;51.02;99888.91;5013935;28;8822;-59
2023/07/13 08:53:28;;;;;;;;;4.80;4.80;;;;;22.00;51.66;99870.59;5012580;28;8870;-58
2023/07/13 08:55:55;;;;;;;;;4.20;3.60;;;;;22.06;51.32;99878.78;5012938;28;8850;-59
2023/07/13 08:58:28;;;;;;;;;7.40;7.00;;;;;22.19;51.38;99887.03;5024505;28;8828;-60
2023/07/13 09:00:57;;;;;;;;;4.00;4.00;;;;;22.32;50.65;99878.13;5021560;28;8834;-58
2023/07/13 09:03:25;;;;;;;;;4.60;4.60;;;;;22.50;50.77;99878.47;5011878;28;8968;-58
2023/07/13 09:05:53;;;;;;;;;6.40;6.40;;;;;22.72;49.95;99877.34;5020123;28;8844;-59
2023/07/13 09:08:20;;;;;;;;;4.20;2.80;;;;;22.92;49.70;99873.69;5031564;28;8832;-59
2023/07/13 09:10:48;;;;;;;;;3.20;2.00;;;;;23.14;49.59;99880.69;5030602;28;8839;-60
2023/07/13 09:13:16;;;;;;;;;4.00;4.00;;;;;23.22;49.59;99871.56;5031759;28;8828;-59
2023/07/13 09:15:44;;;;;;;;;4.20;4.00;;;;;23.35;49.03;99875.13;5032084;28;8986;-59
2023/07/13 09:18:12;;;;;;;;;4.00;4.00;;;;;23.35;49.14;99885.16;5029118;28;8812;-59
2023/07/13 09:20:40;;;;;;;;;4.00;4.00;;;;;23.23;49.23;99882.19;5022249;28;8866;-61
2023/07/13 09:23:08;;;;;;;;;5.00;5.00;;;;;23.27;49.02;99877.19;5031523;28;9877;-58
2023/07/13 09:25:36;;;;;;;;;5.60;5.00;;;;;23.31;49.08;99876.56;5031119;28;8972;-59
2023/07/13 09:28:04;;;;;;;;;5.40;5.40;;;;;23.36;49.08;99881.44;5031019;28;8840;-58
2023/07/13 09:30:32;;;;;;;;;4.60;2.80;;;;;23.58;48.93;99888.38;5031204;28;8839;-60
2023/07/13 09:33:00;;;;;;;;;4.40;4.40;;;;;23.73;48.65;99878.13;5030483;28;8840;-59
2023/07/13 09:35:28;;;;;;;;;5.00;5.00;;;;;23.84;48.48;99869.34;5030376;28;8851;-60
2023/07/13 09:37:56;;;;;;;;;5.00;5.00;;;;;23.96;47.91;99884.88;5031127;28;8901;-60
2023/07/13 09:40:26;;;;;;;;;5.60;5.60;;;;;23.86;48.50;99884.47;5029907;28;8874;-61
2023/07/13 09:42:54;;;;;;;;;8.00;7.80;;;;;23.85;48.13;99890.06;5030616;28;8832;-60
2023/07/13 09:45:22;;;;;;;;;6.00;6.00;;;;;23.78;48.39;99900.09;5030389;28;8871;-61
2023/07/13 09:47:50;;;;;;;;;6.60;5.20;;;;;23.82;48.42;99887.78;5031030;28;8839;-58
2023/07/13 09:50:18;;;;;;;;;6.40;6.40;;;;;23.76;48.67;99888.59;5030502;28;8892;-60
2023/07/13 09:52:46;;;;;;;;;6.00;6.00;;;;;23.69;48.54;99898.63;5030671;28;8970;-59
2023/07/13 09:55:13;;;;;;;;;6.00;5.60;;;;;23.63;49.20;99899.47;5030623;28;8864;-61
2023/07/13 09:57:41;;;;;;;;;5.80;5.80;;;;;23.69;48.66;99904.06;5030882;28;8852;-60
2023/07/13 10:00:18;;;;;;;;;5.60;5.20;;;;;24.04;48.53;99902.91;5029790;28;8845;-59
2023/07/13 10:02:46;;;;;;;;;6.00;6.00;;;;;24.39;47.46;99890.72;5019292;28;8822;-59
2023/07/13 10:05:14;;;;;;;;;6.20;6.00;;;;;24.66;46.67;99892.38;5015358;28;8846;-59
2023/07/13 10:07:43;;;;;;;;;2.20;2.00;;;;;24.77;46.46;99900.75;5014531;28;8965;-59
2023/07/13 10:10:11;;;;;;;;;6.00;5.20;;;;;24.58;47.05;99892.63;5022171;28;8836;-59
2023/07/13 10:12:38;;;;;;;;;6.00;5.60;;;;;24.28;47.25;99902.25;5034171;28;8816;-59
2023/07/13 10:15:09;;;;;;;;;7.40;6.00;;;;;24.17;47.88;99901.00;5017965;28;8926;-59
2023/07/13 10:17:51;;;;;;;;;5.20;4.20;;;;;24.53;46.83;99904.13;5014956;28;8861;-59
2023/07/13 10:20:20;;;;;;;;;6.20;5.60;;;;;25.02;46.34;99904.41;5031162;28;8824;-61
2023/07/13 10:22:48;;;;;;;;;5.80;4.60;;;;;25.40;45.62;99891.69;5034471;28;8885;-59
2023/07/13 10:25:15;;;;;;;;;3.00;3.00;;;;;25.82;45.68;99888.28;5034604;28;8862;-59
2023/07/13 10:27:43;;;;;;;;;3.80;3.40;;;;;26.20;44.85;99892.63;5033155;28;8936;-61
2023/07/13 10:30:11;;;;;;;;;3.80;3.40;;;;;26.18;44.45;99886.56;5014818;28;8810;-59
2023/07/13 10:32:42;;;;;;;;;3.80;3.80;;;;;26.32;44.60;99893.56;5022835;28;8832;-60
2023/07/13 10:35:10;;;;;;;;;3.00;3.00;;;;;26.76;43.68;99893.38;5034620;28;8832;-59
2023/07/13 10:37:38;;;;;;;;;2.00;2.00;;;;;27.22;43.02;99885.47;5034868;28;8859;-58
2023/07/13 10:40:06;;;;;;;;;6.60;4.20;;;;;27.16;43.37;99896.50;5032054;28;8855;-60
2023/07/13 10:42:33;;;;;;;;;3.20;3.20;;;;;26.75;44.19;99899.91;5033940;28;8831;-59
2023/07/13 10:45:01;;;;;;;;;3.00;2.60;;;;;26.74;44.15;99889.19;5032262;28;8824;-59
2023/07/13 10:47:31;;;;;;;;;5.00;5.00;;;;;26.86;43.76;99901.06;5033692;28;8956;-60
2023/07/13 10:49:59;;;;;;;;;3.60;3.60;;;;;26.60;43.54;99896.69;5033241;28;8828;-59
2023/07/13 10:52:27;;;;;;;;;3.00;2.00;;;;;26.39;44.25;99902.53;5034436;28;8839;-60
2023/07/13 10:54:54;;;;;;;;;3.00;3.00;;;;;25.94;45.00;99895.56;5024668;28;8868;-59
2023/07/13 10:57:22;;;;;;;;;3.00;2.40;;;;;25.49;46.33;99911.38;5014432;28;8860;-59
2023/07/13 10:59:50;;;;;;;;;2.80;2.60;;;;;25.18;46.19;99914.84;5013999;28;8865;-60
2023/07/13 11:02:18;;;;;;;;;5.20;5.20;;;;;25.44;45.52;99913.91;5015213;28;8841;-60
2023/07/13 11:04:47;;;;;;;;;2.00;2.00;;;;;25.55;45.51;99921.44;5031586;28;8831;-59
2023/07/13 11:07:15;;;;;;;;;3.00;3.00;;;;;25.89;45.30;99913.69;5032798;28;9597;-59
2023/07/13 11:09:47;;;;;;;;;2.80;2.80;;;;;26.21;44.39;99907.97;5024388;28;8855;-59
2023/07/13 11:12:17;;;;;;;;;3.80;3.80;;;;;26.24;44.24;99912.13;5032224;28;8858;-59
2023/07/13 11:14:45;;;;;;;;;2.60;2.00;;;;;26.13;44.50;99907.41;5030278;28;8854;-59
2023/07/13 11:17:13;;;;;;;;;2.80;2.80;;;;;26.06;44.89;99907.47;5033133;28;8890;-59
2023/07/13 11:19:41;;;;;;;;;3.40;3.40;;;;;25.89;44.78;99910.94;5027440;28;8819;-59
2023/07/13 11:22:08;;;;;;;;;3.00;2.20;;;;;25.65;45.08;99911.72;5026294;28;8836;-59
2023/07/13 11:24:36;;;;;;;;;2.40;2.40;;;;;25.80;44.67;99918.53;5033639;28;8856;-59
2023/07/13 11:27:05;;;;;;;;;1.00;1.00;;;;;26.00;44.48;99912.94;5033372;28;8866;-59
2023/07/13 11:29:32;;;;;;;;;2.20;2.00;;;;;25.82;44.87;99913.69;5033499;28;8854;-59
2023/07/13 11:32:01;;;;;;;;;3.00;2.60;;;;;25.51;45.16;99914.72;5033308;28;8850;-59
2023/07/13 11:34:28;;;;;;;;;3.00;3.00;;;;;25.19;45.98;99912.97;5033756;28;8830;-59
2023/07/13 11:36:56;;;;;;;;;2.00;2.00;;;;;24.87;46.39;99919.38;5033901;28;8925;-60
2023/07/13 11:39:24;;;;;;;;;3.00;3.00;;;;;24.60;46.44;99925.91;5033530;28;8974;-61
2023/07/13 11:41:52;;;;;;;;;2.00;2.00;;;;;24.28;47.39;99934.94;5033403;28;9002;-60
2023/07/13 11:44:19;;;;;;;;;2.00;2.00;;;;;23.99;47.57;99935.34;5033260;28;8954;-60
2023/07/13 11:46:47;;;;;;;;;2.00;2.00;;;;;23.74;48.06;99928.78;5033432;28;8854;-58